ADDS METAR Data INFO
IDs: Format: Raw Decoded Include TAF

Data at: 2342 UTC 15 Dec 2017

KHWD 152254Z 29003KT 3SM HZ CLR 14/05 A3006 RMK AO2 SLP190 T01440050
No TAF found for KHWD

KRDD 152253Z 00000KT 10SM CLR 14/05 A3007 RMK AO2 SLP182 T01440050

KRDD 152338Z 1600/1624 32005KT P6SM OVC200
  FM160400 36008KT P6SM BKN200
  FM161200 35015G22KT P6SM SKC
  FM161700 36020G28KT P6SM SKC


KRTS 152335Z AUTO 23005KT 10SM CLR 12/M11 A3011 RMK AO2
No TAF found for KRTS